createdAt,value
2023-04-27T00:00:58.003Z,102171.77
2023-04-27T00:03:29.131Z,102168.38
2023-04-27T00:05:59.154Z,102170.86
2023-04-27T00:08:29.056Z,102163.55
2023-04-27T00:10:59.423Z,102168.90
2023-04-27T00:13:29.449Z,102170.42
2023-04-27T00:16:00.956Z,102179.95
2023-04-27T00:18:32.021Z,102188.52
2023-04-27T00:21:01.975Z,102188.63
2023-04-27T00:23:31.765Z,102181.59
2023-04-27T00:26:01.564Z,102186.06
2023-04-27T00:28:31.378Z,102179.55
2023-04-27T00:31:03.645Z,102182.02
2023-04-27T00:33:33.158Z,102183.90
2023-04-27T00:36:03.336Z,102182.75
2023-04-27T00:38:33.172Z,102185.95
2023-04-27T00:41:05.614Z,102188.09
2023-04-27T00:43:43.736Z,102183.63
2023-04-27T00:46:14.998Z,102189.14
2023-04-27T00:48:45.511Z,102185.92
2023-04-27T00:51:15.658Z,102180.66
2023-04-27T00:53:45.851Z,102185.53
2023-04-27T00:56:17.323Z,102181.81
2023-04-27T00:58:47.607Z,102181.84
2023-04-27T01:01:17.866Z,102189.78
2023-04-27T01:03:48.743Z,102188.33
2023-04-27T01:06:18.352Z,102183.55
2023-04-27T01:08:48.245Z,102186.99
2023-04-27T01:11:18.114Z,102179.50
2023-04-27T01:13:47.985Z,102171.97
2023-04-27T01:16:19.689Z,102183.73
2023-04-27T01:18:49.529Z,102181.09
2023-04-27T01:21:19.368Z,102182.75
2023-04-27T01:23:49.176Z,102174.62
2023-04-27T01:26:19.026Z,102169.27
2023-04-27T01:28:50.550Z,102172.84
2023-04-27T01:31:20.375Z,102173.24
2023-04-27T01:33:50.468Z,102176.02
2023-04-27T01:36:20.046Z,102174.49
2023-04-27T01:38:51.584Z,102175.48
2023-04-27T01:41:21.457Z,102172.17
2023-04-27T01:43:51.288Z,102176.63
2023-04-27T01:46:21.326Z,102176.36
2023-04-27T01:48:52.745Z,102170.95
2023-04-27T01:51:22.531Z,102171.66
2023-04-27T01:53:52.607Z,102170.52
2023-04-27T01:56:22.136Z,102172.15
2023-04-27T01:58:53.580Z,102171.42
2023-04-27T02:01:23.379Z,102167.48
2023-04-27T02:03:53.389Z,102162.78
2023-04-27T02:06:23.162Z,102159.79
2023-04-27T02:08:52.972Z,102161.70
2023-04-27T02:11:22.761Z,102153.88
2023-04-27T02:13:53.047Z,102152.05
2023-04-27T02:16:24.429Z,102152.68
2023-04-27T02:18:54.618Z,102158.03
2023-04-27T02:21:24.525Z,102156.88
2023-04-27T02:23:54.307Z,102153.04
2023-04-27T02:26:25.651Z,102155.69
2023-04-27T02:28:57.961Z,102156.47
2023-04-27T02:31:28.352Z,102153.69
2023-04-27T02:33:58.135Z,102157.02
2023-04-27T02:36:27.833Z,102151.89
2023-04-27T02:38:57.621Z,102149.91
2023-04-27T02:41:28.492Z,102146.02
2023-04-27T02:43:58.300Z,102143.89
2023-04-27T02:46:28.097Z,102144.53
2023-04-27T02:48:57.989Z,102145.57
2023-04-27T02:51:28.163Z,102144.66
2023-04-27T02:53:57.960Z,102146.06
2023-04-27T02:56:28.042Z,102139.09
2023-04-27T02:58:57.886Z,102139.09
2023-04-27T03:01:27.723Z,102141.87
2023-04-27T03:03:57.830Z,102145.75
2023-04-27T03:06:27.762Z,102142.52
2023-04-27T03:08:57.933Z,102142.02
2023-04-27T03:11:29.456Z,102147.23
2023-04-27T03:14:00.688Z,102151.28
2023-04-27T03:16:32.093Z,102155.42
2023-04-27T03:19:01.780Z,102145.97
2023-04-27T03:21:32.960Z,102136.66
2023-04-27T03:24:02.934Z,102144.49
2023-04-27T03:26:33.596Z,102144.72
2023-04-27T03:29:03.386Z,102145.58
2023-04-27T03:31:33.292Z,102147.19
2023-04-27T03:34:03.494Z,102153.48
2023-04-27T03:36:33.342Z,102153.48
2023-04-27T03:39:03.682Z,102155.28
2023-04-27T03:41:33.549Z,102157.52
2023-04-27T03:44:03.422Z,102163.64
2023-04-27T03:46:35.299Z,102160.09
2023-04-27T03:49:05.648Z,102166.08
2023-04-27T03:51:35.417Z,102162.53
2023-04-27T03:54:07.380Z,102164.27
2023-04-27T03:56:38.132Z,102165.09
2023-04-27T03:59:08.812Z,102167.59
2023-04-27T04:01:40.195Z,102164.30
2023-04-27T04:04:11.528Z,102171.28
2023-04-27T04:06:41.430Z,102172.73
2023-04-27T04:09:12.641Z,102175.22
2023-04-27T04:11:42.880Z,102177.66
2023-04-27T04:14:14.145Z,102168.09
2023-04-27T04:16:43.951Z,102166.87
2023-04-27T04:19:15.113Z,102170.91
2023-04-27T04:21:45.151Z,102167.36
2023-04-27T04:24:16.054Z,102174.59
2023-04-27T04:26:46.021Z,102172.39
2023-04-27T04:29:16.227Z,102176.91
2023-04-27T04:31:46.492Z,102172.63
2023-04-27T04:34:16.367Z,102180.48
2023-04-27T04:36:47.264Z,102180.59
2023-04-27T04:39:17.214Z,102178.02
2023-04-27T04:41:47.398Z,102193.86
2023-04-27T04:44:17.467Z,102205.38
2023-04-27T04:46:47.670Z,102196.05
2023-04-27T04:49:17.639Z,102199.10
2023-04-27T04:51:47.830Z,102209.88
2023-04-27T04:54:17.334Z,102204.98
2023-04-27T04:56:47.232Z,102202.53
2023-04-27T04:59:17.549Z,102202.30
2023-04-27T05:01:47.389Z,102198.61
2023-04-27T05:04:18.692Z,102205.82
2023-04-27T05:06:48.857Z,102203.84
2023-04-27T05:09:18.729Z,102210.72
2023-04-27T05:11:48.295Z,102212.66
2023-04-27T05:14:17.940Z,102215.09
2023-04-27T05:16:49.207Z,102203.48
2023-04-27T05:19:20.699Z,102206.50
2023-04-27T05:21:50.586Z,102207.47
2023-04-27T05:24:20.100Z,102199.51
2023-04-27T05:26:49.894Z,102206.68
2023-04-27T05:29:19.717Z,102209.89
2023-04-27T05:31:49.645Z,102202.91
2023-04-27T05:34:19.292Z,102200.13
2023-04-27T05:36:49.120Z,102196.81
2023-04-27T05:39:18.940Z,102200.92
2023-04-27T05:41:49.020Z,102205.36
2023-04-27T05:44:18.841Z,102203.33
2023-04-27T05:46:48.646Z,102203.64
2023-04-27T05:49:18.475Z,102203.64
2023-04-27T05:51:48.288Z,102201.95
2023-04-27T05:54:18.145Z,102205.09
2023-04-27T05:56:47.686Z,102200.84
2023-04-27T05:59:17.506Z,102199.06
2023-04-27T06:01:47.345Z,102202.50
2023-04-27T06:04:17.322Z,102201.16
2023-04-27T06:06:47.598Z,102198.69
2023-04-27T06:09:17.416Z,102199.34
2023-04-27T06:11:47.447Z,102199.59
2023-04-27T06:14:17.604Z,102205.72
2023-04-27T06:16:47.435Z,102201.87
2023-04-27T06:19:17.261Z,102187.36
2023-04-27T06:21:47.071Z,102187.36
2023-04-27T06:24:17.106Z,102207.26
2023-04-27T06:26:47.260Z,102200.28
2023-04-27T06:29:17.268Z,102204.92
2023-04-27T06:31:47.320Z,102199.17
2023-04-27T06:34:17.223Z,102197.86
2023-04-27T06:36:47.102Z,102199.37
2023-04-27T06:39:17.009Z,102192.56
2023-04-27T06:41:46.816Z,102192.56
2023-04-27T06:44:18.423Z,102200.50
2023-04-27T06:46:48.288Z,102205.54
2023-04-27T06:49:17.909Z,102203.48
2023-04-27T06:51:47.721Z,102202.64
2023-04-27T06:54:17.519Z,102203.39
2023-04-27T06:56:47.431Z,102191.98
2023-04-27T06:59:17.339Z,102187.32
2023-04-27T07:01:47.261Z,102182.55
2023-04-27T07:04:17.106Z,102190.87
2023-04-27T07:06:47.138Z,102195.55
2023-04-27T07:09:27.152Z,102189.66
2023-04-27T07:11:48.481Z,102197.48
2023-04-27T07:14:18.319Z,102198.73
2023-04-27T07:16:48.126Z,102187.27
2023-04-27T07:19:18.294Z,102192.86
2023-04-27T07:21:48.241Z,102190.63
2023-04-27T07:24:21.510Z,102188.00
2023-04-27T07:26:51.304Z,102183.20
2023-04-27T07:29:27.010Z,102195.11
2023-04-27T07:31:52.893Z,102198.56
2023-04-27T07:34:23.031Z,102198.15
2023-04-27T07:36:56.287Z,102199.86
2023-04-27T07:39:26.666Z,102200.95
2023-04-27T07:41:56.673Z,102194.28
2023-04-27T07:44:26.982Z,102190.02
2023-04-27T07:46:58.537Z,102192.75
2023-04-27T07:49:28.380Z,102187.78
2023-04-27T07:51:58.482Z,102192.87
2023-04-27T07:54:28.361Z,102190.16
2023-04-27T07:56:58.182Z,102192.51
2023-04-27T07:59:30.145Z,102184.45
2023-04-27T08:02:17.675Z,102180.28
2023-04-27T08:04:31.486Z,102177.03
2023-04-27T08:07:02.517Z,102184.42
2023-04-27T08:09:32.714Z,102188.91
2023-04-27T08:12:02.931Z,102194.25
2023-04-27T08:14:37.206Z,102173.95
2023-04-27T08:17:06.910Z,102173.95
2023-04-27T08:19:36.868Z,102189.10
2023-04-27T08:22:06.705Z,102191.11
2023-04-27T08:24:36.493Z,102189.73
2023-04-27T08:27:08.190Z,102197.33
2023-04-27T08:29:37.988Z,102191.67
2023-04-27T08:32:09.553Z,102198.75
2023-04-27T08:34:39.368Z,102199.60
2023-04-27T08:37:09.211Z,102196.78
2023-04-27T08:39:39.071Z,102197.10
2023-04-27T08:42:16.116Z,102193.30
2023-04-27T08:44:46.224Z,102192.78
2023-04-27T08:47:16.417Z,102185.45
2023-04-27T08:49:46.535Z,102179.80
2023-04-27T08:52:18.573Z,102174.89
2023-04-27T08:54:48.430Z,102171.84
2023-04-27T08:57:18.772Z,102174.79
2023-04-27T08:59:51.693Z,102179.10
2023-04-27T09:02:22.504Z,102171.00
2023-04-27T09:04:52.493Z,102169.95
2023-04-27T09:07:22.622Z,102165.18
2023-04-27T09:09:53.993Z,102171.95
2023-04-27T09:12:24.036Z,102176.77
2023-04-27T09:15:06.214Z,102160.62
2023-04-27T09:17:37.763Z,102168.07
2023-04-27T09:20:13.827Z,102164.22
2023-04-27T09:22:49.146Z,102158.75
2023-04-27T09:25:29.513Z,102154.22
2023-04-27T09:28:00.832Z,102161.02
2023-04-27T09:30:31.377Z,102160.78
2023-04-27T09:33:03.277Z,102155.52
2023-04-27T09:35:34.162Z,102150.84
2023-04-27T09:38:04.136Z,102148.27
2023-04-27T09:40:34.056Z,102148.11
2023-04-27T09:43:03.869Z,102149.98
2023-04-27T09:45:35.330Z,102146.74
2023-04-27T09:48:07.037Z,102130.86
2023-04-27T09:50:42.422Z,102130.86
2023-04-27T09:53:23.917Z,102133.34
2023-04-27T09:56:05.816Z,102135.99
2023-04-27T09:58:47.797Z,102135.63
2023-04-27T10:01:29.733Z,102124.63
2023-04-27T10:04:21.450Z,102130.74
2023-04-27T10:07:00.459Z,102130.74
2023-04-27T10:09:36.545Z,102135.22
2023-04-27T10:12:21.135Z,102135.22
2023-04-27T10:14:53.000Z,102132.53
2023-04-27T10:17:34.187Z,102126.91
2023-04-27T10:20:08.198Z,102119.49
2023-04-27T10:22:45.042Z,102119.49
2023-04-27T10:25:19.679Z,102130.63
2023-04-27T10:28:04.061Z,102117.92
2023-04-27T10:30:38.903Z,102129.29
2023-04-27T10:33:11.997Z,102134.86
2023-04-27T10:35:46.757Z,102127.20
2023-04-27T10:38:21.863Z,102127.20
2023-04-27T10:41:01.738Z,102119.61
2023-04-27T10:43:34.449Z,102119.43
2023-04-27T10:46:15.754Z,102119.43
2023-04-27T10:48:46.216Z,102121.00
2023-04-27T10:51:18.738Z,102124.44
2023-04-27T10:53:52.069Z,102120.72
2023-04-27T10:56:23.508Z,102118.41
2023-04-27T10:58:53.377Z,102128.95
2023-04-27T11:01:28.961Z,102104.67
2023-04-27T11:03:59.852Z,102104.67
2023-04-27T11:06:33.462Z,102112.36
2023-04-27T11:09:04.480Z,102090.66
2023-04-27T11:11:34.302Z,102090.66
2023-04-27T11:14:04.257Z,102099.66
2023-04-27T11:16:34.162Z,102099.80
2023-04-27T11:19:07.246Z,102093.16
2023-04-27T11:21:37.216Z,102094.77
2023-04-27T11:24:08.842Z,102086.03
2023-04-27T11:26:38.699Z,102086.03
2023-04-27T11:29:12.385Z,102090.86
2023-04-27T11:31:45.913Z,102093.30
2023-04-27T11:34:22.786Z,102090.06
2023-04-27T11:39:38.725Z,102073.14
2023-04-27T11:42:18.231Z,102073.14
2023-04-27T11:44:56.380Z,102067.53
2023-04-27T11:47:28.603Z,102058.61
2023-04-27T11:50:00.573Z,102060.44
2023-04-27T11:52:32.809Z,102053.48
2023-04-27T11:55:08.931Z,102055.45
2023-04-27T11:57:40.308Z,102054.38
2023-04-27T12:00:14.635Z,102040.77
2023-04-27T12:02:45.563Z,102040.77
2023-04-27T12:05:15.687Z,102052.57
2023-04-27T12:07:46.094Z,102050.16
2023-04-27T12:10:18.419Z,102023.90
2023-04-27T12:12:48.236Z,102023.90
2023-04-27T12:15:18.130Z,102038.70
2023-04-27T12:17:48.062Z,102043.57
2023-04-27T12:20:18.388Z,102024.45
2023-04-27T12:22:48.377Z,102036.78
2023-04-27T12:25:19.768Z,102043.31
2023-04-27T12:27:50.055Z,102021.29
2023-04-27T12:30:19.876Z,102021.29
2023-04-27T12:32:49.707Z,102028.81
2023-04-27T12:35:19.450Z,102024.57
2023-04-27T12:37:50.164Z,102032.02
2023-04-27T12:40:20.090Z,102025.37
2023-04-27T12:42:49.897Z,102018.64
2023-04-27T12:45:19.748Z,102028.80
2023-04-27T12:48:01.688Z,102015.95
2023-04-27T12:50:21.807Z,102021.27
2023-04-27T12:52:51.986Z,102022.19
2023-04-27T12:55:32.030Z,102016.11
2023-04-27T12:57:53.165Z,102010.98
2023-04-27T13:00:22.914Z,102010.98
2023-04-27T13:02:53.821Z,102018.64
2023-04-27T13:05:23.800Z,102020.32
2023-04-27T13:07:53.872Z,102002.33
2023-04-27T13:10:23.654Z,102012.41
2023-04-27T13:12:55.063Z,102005.75
2023-04-27T13:15:24.923Z,102008.83
2023-04-27T13:17:56.265Z,102002.16
2023-04-27T13:20:26.141Z,102001.52
2023-04-27T13:22:55.977Z,102000.32
2023-04-27T13:25:25.830Z,102011.12
2023-04-27T13:27:57.292Z,102000.47
2023-04-27T13:30:27.106Z,102010.03
2023-04-27T13:33:07.127Z,102005.89
2023-04-27T13:35:28.616Z,101994.86
2023-04-27T13:37:58.790Z,101987.20
2023-04-27T13:40:29.670Z,101976.37
2023-04-27T13:42:59.511Z,101986.37
2023-04-27T13:45:29.473Z,101977.59
2023-04-27T13:47:59.339Z,101949.80
2023-04-27T13:50:29.311Z,101949.80
2023-04-27T13:52:59.106Z,101947.03
2023-04-27T13:55:28.925Z,101947.03
2023-04-27T13:57:59.221Z,101960.62
2023-04-27T14:00:30.434Z,101953.61
2023-04-27T14:03:01.050Z,101959.84
2023-04-27T14:05:32.019Z,101957.17
2023-04-27T14:08:01.837Z,101946.55
2023-04-27T14:10:31.536Z,101948.54
2023-04-27T14:13:01.661Z,101950.73
2023-04-27T14:15:33.110Z,101952.13
2023-04-27T14:18:04.624Z,101926.92
2023-04-27T14:20:37.697Z,101926.92
2023-04-27T14:23:07.773Z,101947.45
2023-04-27T14:25:39.066Z,101940.05
2023-04-27T14:28:10.598Z,101944.08
2023-04-27T14:30:40.496Z,101944.53
2023-04-27T14:33:10.778Z,101936.32
2023-04-27T14:35:40.697Z,101928.41
2023-04-27T14:38:10.210Z,101914.39
2023-04-27T14:40:41.097Z,101922.72
2023-04-27T14:43:11.054Z,101912.89
2023-04-27T14:45:50.673Z,101917.02
2023-04-27T14:48:12.877Z,101909.01
2023-04-27T14:50:42.885Z,101901.11
2023-04-27T14:53:12.735Z,101900.12
2023-04-27T14:55:44.209Z,101902.50
2023-04-27T14:58:14.252Z,101898.74
2023-04-27T15:00:44.424Z,101894.60
2023-04-27T15:03:14.795Z,101899.48
2023-04-27T15:05:45.607Z,101891.94
2023-04-27T15:08:15.292Z,101894.76
2023-04-27T15:10:45.204Z,101888.73
2023-04-27T15:13:15.314Z,101890.09
2023-04-27T15:15:47.780Z,101895.34
2023-04-27T15:18:19.258Z,101867.00
2023-04-27T15:20:54.111Z,101867.00
2023-04-27T15:23:24.602Z,101881.45
2023-04-27T15:25:59.140Z,101881.45
2023-04-27T15:28:28.890Z,101876.27
2023-04-27T15:30:58.748Z,101873.82
2023-04-27T15:33:28.846Z,101874.22
2023-04-27T15:35:59.228Z,101865.86
2023-04-27T15:38:28.726Z,101865.86
2023-04-27T15:40:58.823Z,101869.04
2023-04-27T15:43:28.648Z,101868.75
2023-04-27T15:45:58.459Z,101871.59
2023-04-27T15:48:28.255Z,101864.66
2023-04-27T15:50:58.049Z,101864.36
2023-04-27T15:53:27.861Z,101858.77
2023-04-27T15:55:57.654Z,101858.77
2023-04-27T15:58:27.742Z,101855.59
2023-04-27T16:00:57.664Z,101858.50
2023-04-27T16:03:27.888Z,101848.44
2023-04-27T16:05:57.763Z,101846.05
2023-04-27T16:08:27.857Z,101847.72
2023-04-27T16:10:57.715Z,101845.59
2023-04-27T16:13:28.433Z,101831.74
2023-04-27T16:15:58.380Z,101814.03
2023-04-27T16:18:27.900Z,101814.03
2023-04-27T16:20:58.686Z,101825.61
2023-04-27T16:23:28.855Z,101811.75
2023-04-27T16:25:58.669Z,101811.75
2023-04-27T16:28:28.860Z,101813.36
2023-04-27T16:30:58.814Z,101790.27
2023-04-27T16:33:28.703Z,101798.44
2023-04-27T16:35:58.597Z,101789.92
2023-04-27T16:38:28.425Z,101795.62
2023-04-27T16:40:58.689Z,101794.27
2023-04-27T16:43:29.867Z,101794.47
2023-04-27T16:45:59.715Z,101790.69
2023-04-27T16:48:30.198Z,101792.17
2023-04-27T16:51:00.197Z,101790.03
2023-04-27T16:53:30.600Z,101775.84
2023-04-27T16:56:03.335Z,101775.84
2023-04-27T16:58:36.175Z,101773.06
2023-04-27T17:01:06.151Z,101772.66
2023-04-27T17:03:36.423Z,101763.80
2023-04-27T17:06:06.390Z,101763.80
2023-04-27T17:08:36.197Z,101762.19
2023-04-27T17:11:14.369Z,101756.42
2023-04-27T17:13:43.898Z,101752.20
2023-04-27T17:16:15.167Z,101752.61
2023-04-27T17:18:46.921Z,101752.61
2023-04-27T17:21:17.327Z,101759.27
2023-04-27T17:23:47.526Z,101762.80
2023-04-27T17:26:18.934Z,101757.95
2023-04-27T17:28:50.030Z,101750.20
2023-04-27T17:31:19.959Z,101750.20
2023-04-27T17:33:50.260Z,101749.59
2023-04-27T17:36:20.561Z,101759.09
2023-04-27T17:38:50.371Z,101757.28
2023-04-27T17:41:20.875Z,101764.34
2023-04-27T17:43:50.970Z,101768.61
2023-04-27T17:46:20.839Z,101768.80
2023-04-27T17:48:50.718Z,101754.97
2023-04-27T17:51:20.617Z,101763.10
2023-04-27T17:53:50.841Z,101748.32
2023-04-27T17:56:20.618Z,101748.32
2023-04-27T17:58:50.852Z,101750.31
2023-04-27T18:01:20.819Z,101750.31
2023-04-27T18:03:51.371Z,101753.67
2023-04-27T18:06:21.406Z,101753.67
2023-04-27T18:08:51.602Z,101739.36
2023-04-27T18:11:22.069Z,101739.36
2023-04-27T18:13:52.530Z,101745.45
2023-04-27T18:16:22.925Z,101740.73
2023-04-27T18:18:53.078Z,101738.81
2023-04-27T18:21:22.968Z,101736.53
2023-04-27T18:23:53.048Z,101733.52
2023-04-27T18:26:23.022Z,101733.52
2023-04-27T18:28:53.136Z,101732.50
2023-04-27T18:31:24.705Z,101734.37
2023-04-27T18:33:54.976Z,101746.22
2023-04-27T18:36:25.619Z,101745.27
2023-04-27T18:38:57.932Z,101748.95
2023-04-27T18:41:27.819Z,101748.95
2023-04-27T18:44:05.693Z,101741.89
2023-04-27T18:46:35.893Z,101744.85
2023-04-27T18:49:06.260Z,101750.80
2023-04-27T18:51:36.080Z,101750.80
2023-04-27T18:56:36.330Z,101746.75
2023-04-27T18:59:06.447Z,101742.48
2023-04-27T19:01:37.743Z,101742.48
2023-04-27T19:04:08.005Z,101749.97
2023-04-27T19:06:37.945Z,101751.55
2023-04-27T19:09:09.250Z,101748.27
2023-04-27T19:11:39.280Z,101738.25
2023-04-27T19:14:09.362Z,101745.22
2023-04-27T19:16:39.148Z,101746.70
2023-04-27T19:19:09.348Z,101732.98
2023-04-27T19:21:39.327Z,101733.50
2023-04-27T19:24:09.593Z,101739.88
2023-04-27T19:26:39.469Z,101739.88
2023-04-27T19:29:09.716Z,101747.95
2023-04-27T19:31:39.660Z,101743.39
2023-04-27T19:34:09.553Z,101741.45
2023-04-27T19:36:39.466Z,101745.08
2023-04-27T19:39:09.564Z,101743.69
2023-04-27T19:41:39.093Z,101737.05
2023-04-27T19:44:09.030Z,101738.42
2023-04-27T19:46:38.990Z,101730.46
2023-04-27T19:49:09.164Z,101743.12
2023-04-27T19:51:40.621Z,101730.48
2023-04-27T19:54:10.816Z,101736.94
2023-04-27T19:56:41.173Z,101730.29
2023-04-27T19:59:11.262Z,101720.88
2023-04-27T20:01:41.185Z,101720.88
2023-04-27T20:04:11.699Z,101719.88
2023-04-27T20:06:43.253Z,101728.73
2023-04-27T20:09:13.439Z,101714.38
2023-04-27T20:11:43.221Z,101714.38
2023-04-27T20:14:13.694Z,101726.52
2023-04-27T20:16:43.756Z,101716.02
2023-04-27T20:19:15.505Z,101713.16
2023-04-27T20:21:45.528Z,101714.97
2023-04-27T20:24:16.219Z,101702.43
2023-04-27T20:26:46.661Z,101702.43
2023-04-27T20:29:16.765Z,101705.03
2023-04-27T20:31:48.507Z,101698.23
2023-04-27T20:34:18.789Z,101698.64
2023-04-27T20:36:49.786Z,101695.79
2023-04-27T20:39:20.310Z,101695.44
2023-04-27T20:41:50.983Z,101695.23
2023-04-27T20:44:22.392Z,101691.98
2023-04-27T20:46:52.221Z,101687.17
2023-04-27T20:49:32.037Z,101679.30
2023-04-27T20:51:53.501Z,101682.80
2023-04-27T20:54:23.308Z,101682.80
2023-04-27T20:56:53.106Z,101679.43
2023-04-27T20:59:22.940Z,101670.77
2023-04-27T21:01:53.136Z,101668.56
2023-04-27T21:04:22.904Z,101665.67
2023-04-27T21:06:52.804Z,101659.88
2023-04-27T21:09:22.731Z,101658.91
2023-04-27T21:11:52.531Z,101656.91
2023-04-27T21:14:22.333Z,101657.80
2023-04-27T21:16:52.147Z,101647.58
2023-04-27T21:19:22.254Z,101642.56
2023-04-27T21:21:52.142Z,101638.02
2023-04-27T21:24:22.270Z,101630.66
2023-04-27T21:26:52.228Z,101626.52
2023-04-27T21:29:22.121Z,101616.66
2023-04-27T21:31:51.930Z,101618.55
2023-04-27T21:34:21.845Z,101606.97
2023-04-27T21:36:51.748Z,101612.69
2023-04-27T21:39:21.608Z,101603.24
2023-04-27T21:41:51.468Z,101607.91
2023-04-27T21:44:21.312Z,101580.98
2023-04-27T21:46:51.654Z,101580.98
2023-04-27T21:49:21.625Z,101592.39
2023-04-27T21:51:51.425Z,101589.15
2023-04-27T21:54:23.224Z,101582.02
2023-04-27T21:56:53.023Z,101567.73
2023-04-27T21:59:22.843Z,101574.15
2023-04-27T22:01:52.743Z,101569.33
2023-04-27T22:04:23.198Z,101562.57
2023-04-27T22:06:53.017Z,101555.03
2023-04-27T22:09:22.868Z,101547.56
2023-04-27T22:11:52.753Z,101542.79
2023-04-27T22:14:22.658Z,101547.55
2023-04-27T22:16:52.836Z,101542.78
2023-04-27T22:19:24.588Z,101540.45
2023-04-27T22:21:55.686Z,101536.42
2023-04-27T22:24:25.474Z,101529.58
2023-04-27T22:26:55.488Z,101532.75
2023-04-27T22:29:25.705Z,101543.73
2023-04-27T22:31:55.688Z,101542.48
2023-04-27T22:34:26.122Z,101538.28
2023-04-27T22:36:56.956Z,101542.05
2023-04-27T22:39:27.256Z,101535.04
2023-04-27T22:41:57.048Z,101532.85
2023-04-27T22:44:26.682Z,101533.55
2023-04-27T22:46:57.039Z,101526.42
2023-04-27T22:49:27.214Z,101512.86
2023-04-27T22:51:57.656Z,101497.23
2023-04-27T22:54:28.755Z,101497.23
2023-04-27T22:56:58.680Z,101516.82
2023-04-27T22:59:28.509Z,101513.30
2023-04-27T23:01:58.510Z,101512.70
2023-04-27T23:04:29.101Z,101508.41
2023-04-27T23:06:59.044Z,101508.46
2023-04-27T23:09:28.847Z,101503.64
2023-04-27T23:11:58.957Z,101501.30
2023-04-27T23:14:29.178Z,101499.09
2023-04-27T23:16:59.076Z,101495.13
2023-04-27T23:19:29.453Z,101485.45
2023-04-27T23:22:01.504Z,101487.41
2023-04-27T23:24:31.391Z,101488.09
2023-04-27T23:27:01.367Z,101488.38
2023-04-27T23:29:31.933Z,101481.75
2023-04-27T23:32:04.885Z,101479.52
2023-04-27T23:34:34.983Z,101480.11
2023-04-27T23:37:04.829Z,101475.69
2023-04-27T23:39:34.354Z,101469.42
2023-04-27T23:42:05.538Z,101453.95
2023-04-27T23:44:35.062Z,101457.02
2023-04-27T23:47:04.870Z,101448.91
2023-04-27T23:49:35.138Z,101442.08
2023-04-27T23:52:05.662Z,101449.74
2023-04-27T23:54:35.274Z,101448.95
2023-04-27T23:57:05.130Z,101436.58
2023-04-27T23:59:35.923Z,101420.03
